sensor_id;sensor_type;location;lat;lon;timestamp;P1;durP1;ratioP1;P2;durP2;ratioP2
47896;SDS011;39629;51.400;5.494;2023-04-21T00:04:12;17.15;;;9.65;;
47896;SDS011;39629;51.400;5.494;2023-04-21T00:09:15;21.73;;;13.10;;
47896;SDS011;39629;51.400;5.494;2023-04-21T00:14:17;23.75;;;13.60;;
47896;SDS011;39629;51.400;5.494;2023-04-21T00:19:19;21.80;;;13.02;;
47896;SDS011;39629;51.400;5.494;2023-04-21T00:24:22;23.30;;;13.85;;
47896;SDS011;39629;51.400;5.494;2023-04-21T00:29:23;24.25;;;13.75;;
47896;SDS011;39629;51.400;5.494;2023-04-21T00:34:25;19.25;;;11.52;;
47896;SDS011;39629;51.400;5.494;2023-04-21T00:39:27;18.85;;;11.13;;
47896;SDS011;39629;51.400;5.494;2023-04-21T00:44:29;17.83;;;10.65;;
47896;SDS011;39629;51.400;5.494;2023-04-21T00:49:31;20.10;;;11.25;;
47896;SDS011;39629;51.400;5.494;2023-04-21T00:54:35;20.00;;;11.98;;
47896;SDS011;39629;51.400;5.494;2023-04-21T00:59:36;22.57;;;12.77;;
47896;SDS011;39629;51.400;5.494;2023-04-21T01:04:38;22.40;;;12.45;;
47896;SDS011;39629;51.400;5.494;2023-04-21T01:09:41;21.65;;;12.25;;
47896;SDS011;39629;51.400;5.494;2023-04-21T01:14:42;24.50;;;13.38;;
47896;SDS011;39629;51.400;5.494;2023-04-21T01:19:44;22.48;;;12.43;;
47896;SDS011;39629;51.400;5.494;2023-04-21T01:24:47;21.05;;;12.10;;
47896;SDS011;39629;51.400;5.494;2023-04-21T01:29:50;24.38;;;13.82;;
47896;SDS011;39629;51.400;5.494;2023-04-21T01:34:52;23.75;;;13.00;;
47896;SDS011;39629;51.400;5.494;2023-04-21T01:39:56;19.90;;;11.45;;
47896;SDS011;39629;51.400;5.494;2023-04-21T01:45:00;23.45;;;13.27;;
47896;SDS011;39629;51.400;5.494;2023-04-21T01:50:02;21.33;;;11.55;;
47896;SDS011;39629;51.400;5.494;2023-04-21T01:55:05;22.95;;;12.18;;
47896;SDS011;39629;51.400;5.494;2023-04-21T02:00:08;21.88;;;11.52;;
47896;SDS011;39629;51.400;5.494;2023-04-21T02:05:18;20.42;;;11.45;;
47896;SDS011;39629;51.400;5.494;2023-04-21T02:10:21;22.65;;;11.63;;
47896;SDS011;39629;51.400;5.494;2023-04-21T02:15:22;20.60;;;11.35;;
47896;SDS011;39629;51.400;5.494;2023-04-21T02:20:24;20.25;;;10.50;;
47896;SDS011;39629;51.400;5.494;2023-04-21T02:25:28;22.08;;;12.43;;
47896;SDS011;39629;51.400;5.494;2023-04-21T02:30:30;19.92;;;11.23;;
47896;SDS011;39629;51.400;5.494;2023-04-21T02:35:31;21.67;;;11.38;;
47896;SDS011;39629;51.400;5.494;2023-04-21T02:40:35;21.77;;;11.02;;
47896;SDS011;39629;51.400;5.494;2023-04-21T02:45:36;16.70;;;9.15;;
47896;SDS011;39629;51.400;5.494;2023-04-21T02:50:38;18.05;;;10.00;;
47896;SDS011;39629;51.400;5.494;2023-04-21T02:55:41;21.92;;;11.27;;
47896;SDS011;39629;51.400;5.494;2023-04-21T03:00:43;19.67;;;9.73;;
47896;SDS011;39629;51.400;5.494;2023-04-21T03:05:45;20.40;;;10.50;;
47896;SDS011;39629;51.400;5.494;2023-04-21T03:10:47;24.27;;;12.25;;
47896;SDS011;39629;51.400;5.494;2023-04-21T03:15:49;22.40;;;12.35;;
47896;SDS011;39629;51.400;5.494;2023-04-21T03:20:51;19.38;;;10.27;;
47896;SDS011;39629;51.400;5.494;2023-04-21T03:26:00;19.20;;;9.98;;
47896;SDS011;39629;51.400;5.494;2023-04-21T03:31:07;21.65;;;10.57;;
47896;SDS011;39629;51.400;5.494;2023-04-21T03:36:08;16.98;;;9.23;;
47896;SDS011;39629;51.400;5.494;2023-04-21T03:41:13;19.40;;;10.00;;
47896;SDS011;39629;51.400;5.494;2023-04-21T03:46:16;20.25;;;10.77;;
47896;SDS011;39629;51.400;5.494;2023-04-21T03:51:19;23.85;;;12.30;;
47896;SDS011;39629;51.400;5.494;2023-04-21T03:56:22;20.33;;;10.35;;
47896;SDS011;39629;51.400;5.494;2023-04-21T04:01:23;27.55;;;13.45;;
47896;SDS011;39629;51.400;5.494;2023-04-21T04:06:25;22.40;;;11.02;;
47896;SDS011;39629;51.400;5.494;2023-04-21T04:11:28;23.08;;;11.48;;
47896;SDS011;39629;51.400;5.494;2023-04-21T04:16:30;22.17;;;11.65;;
47896;SDS011;39629;51.400;5.494;2023-04-21T04:21:34;23.50;;;11.23;;
47896;SDS011;39629;51.400;5.494;2023-04-21T04:26:37;23.50;;;11.65;;
47896;SDS011;39629;51.400;5.494;2023-04-21T04:31:39;24.88;;;12.55;;
47896;SDS011;39629;51.400;5.494;2023-04-21T04:36:40;20.58;;;10.80;;
47896;SDS011;39629;51.400;5.494;2023-04-21T04:41:43;29.85;;;14.55;;
47896;SDS011;39629;51.400;5.494;2023-04-21T04:46:46;28.00;;;13.80;;
47896;SDS011;39629;51.400;5.494;2023-04-21T04:51:48;24.30;;;12.20;;
47896;SDS011;39629;51.400;5.494;2023-04-21T04:56:51;25.08;;;11.85;;
47896;SDS011;39629;51.400;5.494;2023-04-21T05:01:52;32.85;;;13.90;;
47896;SDS011;39629;51.400;5.494;2023-04-21T05:06:54;35.58;;;16.55;;
47896;SDS011;39629;51.400;5.494;2023-04-21T05:11:57;34.58;;;15.93;;
47896;SDS011;39629;51.400;5.494;2023-04-21T05:16:59;32.20;;;14.43;;
47896;SDS011;39629;51.400;5.494;2023-04-21T05:22:00;35.50;;;16.45;;
47896;SDS011;39629;51.400;5.494;2023-04-21T05:27:03;32.35;;;14.75;;
47896;SDS011;39629;51.400;5.494;2023-04-21T05:32:05;34.13;;;15.38;;
47896;SDS011;39629;51.400;5.494;2023-04-21T05:37:06;35.65;;;15.75;;
47896;SDS011;39629;51.400;5.494;2023-04-21T05:42:11;33.53;;;16.63;;
47896;SDS011;39629;51.400;5.494;2023-04-21T05:47:13;30.30;;;14.30;;
47896;SDS011;39629;51.400;5.494;2023-04-21T05:52:15;35.78;;;16.33;;
47896;SDS011;39629;51.400;5.494;2023-04-21T05:57:18;28.42;;;13.82;;
47896;SDS011;39629;51.400;5.494;2023-04-21T06:02:20;35.45;;;15.95;;
47896;SDS011;39629;51.400;5.494;2023-04-21T06:07:22;28.48;;;13.40;;
47896;SDS011;39629;51.400;5.494;2023-04-21T06:12:25;31.67;;;14.30;;
47896;SDS011;39629;51.400;5.494;2023-04-21T06:17:26;28.10;;;13.32;;
47896;SDS011;39629;51.400;5.494;2023-04-21T06:22:28;32.78;;;15.73;;
47896;SDS011;39629;51.400;5.494;2023-04-21T06:27:31;32.58;;;14.63;;
47896;SDS011;39629;51.400;5.494;2023-04-21T06:32:32;35.80;;;16.63;;
47896;SDS011;39629;51.400;5.494;2023-04-21T06:37:35;33.47;;;15.75;;
47896;SDS011;39629;51.400;5.494;2023-04-21T06:42:37;34.70;;;16.50;;
47896;SDS011;39629;51.400;5.494;2023-04-21T06:47:39;31.17;;;14.60;;
47896;SDS011;39629;51.400;5.494;2023-04-21T06:52:41;29.67;;;14.30;;
47896;SDS011;39629;51.400;5.494;2023-04-21T06:57:44;34.85;;;16.73;;
47896;SDS011;39629;51.400;5.494;2023-04-21T07:02:45;33.22;;;16.38;;
47896;SDS011;39629;51.400;5.494;2023-04-21T07:07:47;28.65;;;13.85;;
47896;SDS011;39629;51.400;5.494;2023-04-21T07:12:50;26.63;;;13.55;;
47896;SDS011;39629;51.400;5.494;2023-04-21T07:17:51;25.55;;;13.57;;
47896;SDS011;39629;51.400;5.494;2023-04-21T07:22:53;25.98;;;12.95;;
47896;SDS011;39629;51.400;5.494;2023-04-21T07:27:56;25.58;;;13.57;;
47896;SDS011;39629;51.400;5.494;2023-04-21T07:32:57;26.48;;;14.10;;
47896;SDS011;39629;51.400;5.494;2023-04-21T07:37:59;26.73;;;14.15;;
47896;SDS011;39629;51.400;5.494;2023-04-21T07:43:02;29.15;;;14.38;;
47896;SDS011;39629;51.400;5.494;2023-04-21T07:48:04;28.08;;;15.20;;
47896;SDS011;39629;51.400;5.494;2023-04-21T07:53:06;27.85;;;14.43;;
47896;SDS011;39629;51.400;5.494;2023-04-21T07:58:09;24.30;;;13.70;;
47896;SDS011;39629;51.400;5.494;2023-04-21T08:03:11;24.60;;;12.13;;
47896;SDS011;39629;51.400;5.494;2023-04-21T08:08:12;23.70;;;12.68;;
47896;SDS011;39629;51.400;5.494;2023-04-21T08:13:20;25.48;;;13.25;;
47896;SDS011;39629;51.400;5.494;2023-04-21T08:18:24;17.98;;;10.02;;
47896;SDS011;39629;51.400;5.494;2023-04-21T08:23:25;19.70;;;9.93;;
47896;SDS011;39629;51.400;5.494;2023-04-21T08:28:31;17.50;;;9.95;;
47896;SDS011;39629;51.400;5.494;2023-04-21T08:33:32;17.13;;;9.30;;
47896;SDS011;39629;51.400;5.494;2023-04-21T08:38:34;18.77;;;10.32;;
47896;SDS011;39629;51.400;5.494;2023-04-21T08:43:37;16.73;;;10.13;;
47896;SDS011;39629;51.400;5.494;2023-04-21T08:48:38;15.80;;;9.52;;
47896;SDS011;39629;51.400;5.494;2023-04-21T08:53:40;15.73;;;9.82;;
47896;SDS011;39629;51.400;5.494;2023-04-21T08:58:43;14.32;;;8.65;;
47896;SDS011;39629;51.400;5.494;2023-04-21T09:03:45;16.13;;;9.43;;
47896;SDS011;39629;51.400;5.494;2023-04-21T09:08:51;12.90;;;6.80;;
47896;SDS011;39629;51.400;5.494;2023-04-21T09:13:56;14.55;;;9.20;;
47896;SDS011;39629;51.400;5.494;2023-04-21T09:19:00;14.80;;;8.95;;
47896;SDS011;39629;51.400;5.494;2023-04-21T09:24:03;12.90;;;7.97;;
47896;SDS011;39629;51.400;5.494;2023-04-21T09:34:15;14.18;;;8.63;;
47896;SDS011;39629;51.400;5.494;2023-04-21T09:39:19;12.90;;;8.68;;
47896;SDS011;39629;51.400;5.494;2023-04-21T09:49:27;14.68;;;9.00;;
47896;SDS011;39629;51.400;5.494;2023-04-21T09:54:31;11.85;;;6.78;;
47896;SDS011;39629;51.400;5.494;2023-04-21T09:59:35;13.27;;;8.35;;
47896;SDS011;39629;51.400;5.494;2023-04-21T10:04:40;11.60;;;6.97;;
47896;SDS011;39629;51.400;5.494;2023-04-21T10:09:44;13.05;;;7.47;;
47896;SDS011;39629;51.400;5.494;2023-04-21T10:14:50;11.95;;;7.30;;
47896;SDS011;39629;51.400;5.494;2023-04-21T10:19:53;13.48;;;7.50;;
47896;SDS011;39629;51.400;5.494;2023-04-21T10:24:57;12.07;;;8.10;;
47896;SDS011;39629;51.400;5.494;2023-04-21T10:30:01;12.03;;;7.57;;
47896;SDS011;39629;51.400;5.494;2023-04-21T10:35:20;12.68;;;7.35;;
47896;SDS011;39629;51.400;5.494;2023-04-21T10:40:32;11.35;;;7.32;;
47896;SDS011;39629;51.400;5.494;2023-04-21T10:45:39;11.20;;;6.55;;
47896;SDS011;39629;51.400;5.494;2023-04-21T10:50:40;11.57;;;7.17;;
47896;SDS011;39629;51.400;5.494;2023-04-21T10:55:47;11.40;;;7.70;;
47896;SDS011;39629;51.400;5.494;2023-04-21T11:00:53;10.90;;;7.28;;
47896;SDS011;39629;51.400;5.494;2023-04-21T11:05:55;11.63;;;6.70;;
47896;SDS011;39629;51.400;5.494;2023-04-21T11:10:57;12.68;;;8.43;;
47896;SDS011;39629;51.400;5.494;2023-04-21T11:16:01;12.40;;;7.57;;
47896;SDS011;39629;51.400;5.494;2023-04-21T11:21:12;10.18;;;6.30;;
47896;SDS011;39629;51.400;5.494;2023-04-21T11:26:28;10.98;;;7.28;;
47896;SDS011;39629;51.400;5.494;2023-04-21T11:31:33;10.13;;;7.10;;
47896;SDS011;39629;51.400;5.494;2023-04-21T11:41:38;10.63;;;7.25;;
47896;SDS011;39629;51.400;5.494;2023-04-21T11:46:44;10.23;;;6.30;;
47896;SDS011;39629;51.400;5.494;2023-04-21T11:51:47;9.85;;;6.45;;
47896;SDS011;39629;51.400;5.494;2023-04-21T11:56:50;10.52;;;6.38;;
47896;SDS011;39629;51.400;5.494;2023-04-21T12:01:53;8.93;;;6.40;;
47896;SDS011;39629;51.400;5.494;2023-04-21T12:06:56;7.50;;;5.30;;
47896;SDS011;39629;51.400;5.494;2023-04-21T12:11:59;10.18;;;6.57;;
47896;SDS011;39629;51.400;5.494;2023-04-21T12:17:06;8.32;;;6.18;;
47896;SDS011;39629;51.400;5.494;2023-04-21T12:22:08;7.67;;;5.67;;
47896;SDS011;39629;51.400;5.494;2023-04-21T12:27:10;8.43;;;5.47;;
47896;SDS011;39629;51.400;5.494;2023-04-21T12:32:14;8.32;;;6.30;;
47896;SDS011;39629;51.400;5.494;2023-04-21T12:37:15;8.70;;;6.10;;
47896;SDS011;39629;51.400;5.494;2023-04-21T12:42:18;9.70;;;6.45;;
47896;SDS011;39629;51.400;5.494;2023-04-21T12:47:21;10.52;;;6.70;;
47896;SDS011;39629;51.400;5.494;2023-04-21T12:52:22;12.35;;;6.68;;
47896;SDS011;39629;51.400;5.494;2023-04-21T12:57:24;11.25;;;6.85;;
47896;SDS011;39629;51.400;5.494;2023-04-21T13:02:27;9.18;;;5.95;;
47896;SDS011;39629;51.400;5.494;2023-04-21T13:07:30;8.10;;;4.97;;
47896;SDS011;39629;51.400;5.494;2023-04-21T13:12:33;8.25;;;5.15;;
47896;SDS011;39629;51.400;5.494;2023-04-21T13:17:36;9.82;;;5.50;;
47896;SDS011;39629;51.400;5.494;2023-04-21T13:22:37;8.88;;;5.32;;
47896;SDS011;39629;51.400;5.494;2023-04-21T13:27:39;7.60;;;4.82;;
47896;SDS011;39629;51.400;5.494;2023-04-21T13:32:42;7.97;;;4.65;;
47896;SDS011;39629;51.400;5.494;2023-04-21T13:37:44;8.65;;;5.10;;
47896;SDS011;39629;51.400;5.494;2023-04-21T13:42:45;8.20;;;5.10;;
47896;SDS011;39629;51.400;5.494;2023-04-21T13:47:48;7.80;;;5.43;;
47896;SDS011;39629;51.400;5.494;2023-04-21T13:52:50;7.82;;;5.22;;
47896;SDS011;39629;51.400;5.494;2023-04-21T13:57:52;8.30;;;5.55;;
47896;SDS011;39629;51.400;5.494;2023-04-21T14:02:55;8.77;;;5.68;;
47896;SDS011;39629;51.400;5.494;2023-04-21T14:07:56;8.88;;;6.20;;
47896;SDS011;39629;51.400;5.494;2023-04-21T14:12:58;10.82;;;6.88;;
47896;SDS011;39629;51.400;5.494;2023-04-21T14:18:01;8.75;;;5.65;;
47896;SDS011;39629;51.400;5.494;2023-04-21T14:28:05;8.75;;;5.72;;
47896;SDS011;39629;51.400;5.494;2023-04-21T14:33:09;10.05;;;5.63;;
47896;SDS011;39629;51.400;5.494;2023-04-21T14:38:10;11.63;;;8.40;;
47896;SDS011;39629;51.400;5.494;2023-04-21T14:43:12;14.50;;;8.70;;
47896;SDS011;39629;51.400;5.494;2023-04-21T14:48:15;12.45;;;8.95;;
47896;SDS011;39629;51.400;5.494;2023-04-21T14:53:16;11.05;;;7.25;;
47896;SDS011;39629;51.400;5.494;2023-04-21T14:58:18;12.52;;;8.90;;
47896;SDS011;39629;51.400;5.494;2023-04-21T15:03:21;9.50;;;6.68;;
47896;SDS011;39629;51.400;5.494;2023-04-21T15:08:22;10.38;;;7.47;;
47896;SDS011;39629;51.400;5.494;2023-04-21T15:13:24;11.43;;;6.78;;
47896;SDS011;39629;51.400;5.494;2023-04-21T15:18:27;13.35;;;8.07;;
47896;SDS011;39629;51.400;5.494;2023-04-21T15:23:28;12.15;;;7.10;;
47896;SDS011;39629;51.400;5.494;2023-04-21T15:33:36;9.07;;;6.20;;
47896;SDS011;39629;51.400;5.494;2023-04-21T15:38:37;12.57;;;7.03;;
47896;SDS011;39629;51.400;5.494;2023-04-21T15:43:39;11.15;;;7.72;;
47896;SDS011;39629;51.400;5.494;2023-04-21T15:48:42;10.77;;;6.75;;
47896;SDS011;39629;51.400;5.494;2023-04-21T15:53:43;7.10;;;4.93;;
47896;SDS011;39629;51.400;5.494;2023-04-21T15:58:47;7.40;;;4.70;;
47896;SDS011;39629;51.400;5.494;2023-04-21T16:03:50;6.72;;;4.20;;
47896;SDS011;39629;51.400;5.494;2023-04-21T16:08:51;6.47;;;4.00;;
47896;SDS011;39629;51.400;5.494;2023-04-21T16:13:53;6.43;;;4.32;;
47896;SDS011;39629;51.400;5.494;2023-04-21T16:18:56;6.75;;;4.00;;
47896;SDS011;39629;51.400;5.494;2023-04-21T16:23:58;6.63;;;4.40;;
47896;SDS011;39629;51.400;5.494;2023-04-21T16:28:59;7.40;;;4.75;;
47896;SDS011;39629;51.400;5.494;2023-04-21T16:34:02;7.43;;;4.40;;
47896;SDS011;39629;51.400;5.494;2023-04-21T16:39:04;6.57;;;4.10;;
47896;SDS011;39629;51.400;5.494;2023-04-21T16:44:05;5.25;;;3.67;;
47896;SDS011;39629;51.400;5.494;2023-04-21T16:49:08;7.57;;;4.15;;
47896;SDS011;39629;51.400;5.494;2023-04-21T16:54:11;7.18;;;4.50;;
47896;SDS011;39629;51.400;5.494;2023-04-21T16:59:12;7.63;;;4.75;;
47896;SDS011;39629;51.400;5.494;2023-04-21T17:04:19;8.80;;;4.72;;
47896;SDS011;39629;51.400;5.494;2023-04-21T17:09:21;7.00;;;3.80;;
47896;SDS011;39629;51.400;5.494;2023-04-21T17:14:22;7.15;;;4.03;;
47896;SDS011;39629;51.400;5.494;2023-04-21T17:19:25;7.22;;;4.00;;
47896;SDS011;39629;51.400;5.494;2023-04-21T17:24:27;7.95;;;4.10;;
47896;SDS011;39629;51.400;5.494;2023-04-21T17:29:29;4.88;;;3.40;;
47896;SDS011;39629;51.400;5.494;2023-04-21T17:34:32;7.60;;;3.88;;
47896;SDS011;39629;51.400;5.494;2023-04-21T17:39:33;7.05;;;4.15;;
47896;SDS011;39629;51.400;5.494;2023-04-21T17:44:35;6.40;;;3.67;;
47896;SDS011;39629;51.400;5.494;2023-04-21T17:49:40;7.07;;;3.90;;
47896;SDS011;39629;51.400;5.494;2023-04-21T17:54:41;6.53;;;3.72;;
47896;SDS011;39629;51.400;5.494;2023-04-21T17:59:43;7.90;;;3.70;;
47896;SDS011;39629;51.400;5.494;2023-04-21T18:04:46;8.15;;;3.50;;
47896;SDS011;39629;51.400;5.494;2023-04-21T18:09:47;4.88;;;3.15;;
47896;SDS011;39629;51.400;5.494;2023-04-21T18:14:50;5.28;;;3.03;;
47896;SDS011;39629;51.400;5.494;2023-04-21T18:19:53;6.53;;;3.30;;
47896;SDS011;39629;51.400;5.494;2023-04-21T18:24:55;4.57;;;2.72;;
47896;SDS011;39629;51.400;5.494;2023-04-21T18:29:56;4.43;;;2.42;;
47896;SDS011;39629;51.400;5.494;2023-04-21T18:34:59;4.07;;;2.50;;
47896;SDS011;39629;51.400;5.494;2023-04-21T18:40:01;3.95;;;2.42;;
47896;SDS011;39629;51.400;5.494;2023-04-21T18:45:05;5.18;;;2.80;;
47896;SDS011;39629;51.400;5.494;2023-04-21T18:50:09;4.78;;;2.53;;
47896;SDS011;39629;51.400;5.494;2023-04-21T18:55:12;7.15;;;2.83;;
47896;SDS011;39629;51.400;5.494;2023-04-21T19:00:14;3.53;;;2.40;;
47896;SDS011;39629;51.400;5.494;2023-04-21T19:05:17;4.32;;;2.63;;
47896;SDS011;39629;51.400;5.494;2023-04-21T19:10:18;4.53;;;2.60;;
47896;SDS011;39629;51.400;5.494;2023-04-21T19:15:20;4.97;;;2.83;;
47896;SDS011;39629;51.400;5.494;2023-04-21T19:20:23;4.88;;;2.90;;
47896;SDS011;39629;51.400;5.494;2023-04-21T19:25:25;5.57;;;2.60;;
47896;SDS011;39629;51.400;5.494;2023-04-21T19:30:27;6.28;;;3.05;;
47896;SDS011;39629;51.400;5.494;2023-04-21T19:35:30;4.07;;;2.60;;
47896;SDS011;39629;51.400;5.494;2023-04-21T19:40:32;6.80;;;2.73;;
47896;SDS011;39629;51.400;5.494;2023-04-21T19:45:33;4.82;;;2.50;;
47896;SDS011;39629;51.400;5.494;2023-04-21T19:50:36;3.63;;;2.47;;
47896;SDS011;39629;51.400;5.494;2023-04-21T19:55:38;3.42;;;1.70;;
47896;SDS011;39629;51.400;5.494;2023-04-21T20:00:40;3.80;;;2.15;;
47896;SDS011;39629;51.400;5.494;2023-04-21T20:05:43;5.88;;;2.40;;
47896;SDS011;39629;51.400;5.494;2023-04-21T20:10:45;5.65;;;2.30;;
47896;SDS011;39629;51.400;5.494;2023-04-21T20:15:46;4.45;;;2.30;;
47896;SDS011;39629;51.400;5.494;2023-04-21T20:20:49;5.43;;;1.90;;
47896;SDS011;39629;51.400;5.494;2023-04-21T20:25:51;4.18;;;2.47;;
47896;SDS011;39629;51.400;5.494;2023-04-21T20:30:52;4.95;;;2.30;;
47896;SDS011;39629;51.400;5.494;2023-04-21T20:35:56;3.95;;;2.50;;
47896;SDS011;39629;51.400;5.494;2023-04-21T20:41:01;4.50;;;2.53;;
47896;SDS011;39629;51.400;5.494;2023-04-21T20:46:03;7.00;;;2.53;;
47896;SDS011;39629;51.400;5.494;2023-04-21T20:51:07;4.05;;;2.75;;
47896;SDS011;39629;51.400;5.494;2023-04-21T20:56:09;4.28;;;2.65;;
47896;SDS011;39629;51.400;5.494;2023-04-21T21:01:10;4.90;;;2.50;;
47896;SDS011;39629;51.400;5.494;2023-04-21T21:06:13;4.78;;;2.42;;
47896;SDS011;39629;51.400;5.494;2023-04-21T21:11:15;4.55;;;2.50;;
47896;SDS011;39629;51.400;5.494;2023-04-21T21:16:17;4.65;;;2.75;;
47896;SDS011;39629;51.400;5.494;2023-04-21T21:21:20;4.22;;;2.80;;
47896;SDS011;39629;51.400;5.494;2023-04-21T21:26:21;4.05;;;2.60;;
47896;SDS011;39629;51.400;5.494;2023-04-21T21:31:23;6.40;;;3.00;;
47896;SDS011;39629;51.400;5.494;2023-04-21T21:36:26;4.38;;;2.70;;
47896;SDS011;39629;51.400;5.494;2023-04-21T21:41:28;4.10;;;2.72;;
47896;SDS011;39629;51.400;5.494;2023-04-21T21:46:29;6.22;;;3.25;;
47896;SDS011;39629;51.400;5.494;2023-04-21T21:51:32;4.32;;;2.67;;
47896;SDS011;39629;51.400;5.494;2023-04-21T21:56:34;6.43;;;3.03;;
47896;SDS011;39629;51.400;5.494;2023-04-21T22:01:36;6.72;;;3.63;;
47896;SDS011;39629;51.400;5.494;2023-04-21T22:06:39;4.43;;;2.85;;
47896;SDS011;39629;51.400;5.494;2023-04-21T22:11:40;6.38;;;3.42;;
47896;SDS011;39629;51.400;5.494;2023-04-21T22:16:42;4.93;;;3.30;;
47896;SDS011;39629;51.400;5.494;2023-04-21T22:21:46;6.05;;;3.47;;
47896;SDS011;39629;51.400;5.494;2023-04-21T22:26:48;3.83;;;2.55;;
47896;SDS011;39629;51.400;5.494;2023-04-21T22:31:50;5.78;;;2.92;;
47896;SDS011;39629;51.400;5.494;2023-04-21T22:36:53;4.53;;;2.90;;
47896;SDS011;39629;51.400;5.494;2023-04-21T22:41:54;4.85;;;2.88;;
47896;SDS011;39629;51.400;5.494;2023-04-21T22:46:56;5.72;;;4.00;;
47896;SDS011;39629;51.400;5.494;2023-04-21T22:51:59;5.45;;;3.20;;
47896;SDS011;39629;51.400;5.494;2023-04-21T22:57:01;5.60;;;3.15;;
47896;SDS011;39629;51.400;5.494;2023-04-21T23:02:03;4.47;;;3.00;;
47896;SDS011;39629;51.400;5.494;2023-04-21T23:07:06;2.15;;;1.60;;
47896;SDS011;39629;51.400;5.494;2023-04-21T23:12:07;2.35;;;1.60;;
47896;SDS011;39629;51.400;5.494;2023-04-21T23:17:09;2.65;;;1.95;;
47896;SDS011;39629;51.400;5.494;2023-04-21T23:22:12;3.38;;;2.40;;
47896;SDS011;39629;51.400;5.494;2023-04-21T23:27:13;3.78;;;2.58;;
47896;SDS011;39629;51.400;5.494;2023-04-21T23:32:15;5.03;;;2.45;;
47896;SDS011;39629;51.400;5.494;2023-04-21T23:37:18;2.70;;;1.67;;
47896;SDS011;39629;51.400;5.494;2023-04-21T23:42:19;2.65;;;1.95;;
47896;SDS011;39629;51.400;5.494;2023-04-21T23:47:21;3.60;;;2.30;;
47896;SDS011;39629;51.400;5.494;2023-04-21T23:52:24;4.18;;;2.90;;
47896;SDS011;39629;51.400;5.494;2023-04-21T23:57:26;4.07;;;3.08;;
